sensor_id;sensor_type;location;lat;lon;timestamp;P1;durP1;ratioP1;P2;durP2;ratioP2
5277;SDS011;2662;51.194;6.614;2024-02-28T00:00:41;9.10;;;4.67;;
5277;SDS011;2662;51.194;6.614;2024-02-28T00:03:14;10.03;;;4.10;;
5277;SDS011;2662;51.194;6.614;2024-02-28T00:05:43;9.37;;;3.97;;
5277;SDS011;2662;51.194;6.614;2024-02-28T00:08:10;5.43;;;3.73;;
5277;SDS011;2662;51.194;6.614;2024-02-28T00:10:37;5.67;;;3.30;;
5277;SDS011;2662;51.194;6.614;2024-02-28T00:13:05;6.37;;;4.37;;
5277;SDS011;2662;51.194;6.614;2024-02-28T00:15:32;11.20;;;5.20;;
5277;SDS011;2662;51.194;6.614;2024-02-28T00:17:59;6.87;;;4.10;;
5277;SDS011;2662;51.194;6.614;2024-02-28T00:20:28;10.37;;;3.90;;
5277;SDS011;2662;51.194;6.614;2024-02-28T00:22:56;9.30;;;4.23;;
5277;SDS011;2662;51.194;6.614;2024-02-28T00:25:23;6.70;;;4.00;;
5277;SDS011;2662;51.194;6.614;2024-02-28T00:27:50;7.77;;;4.33;;
5277;SDS011;2662;51.194;6.614;2024-02-28T00:30:18;3.10;;;2.80;;
5277;SDS011;2662;51.194;6.614;2024-02-28T00:32:53;9.90;;;4.00;;
5277;SDS011;2662;51.194;6.614;2024-02-28T00:35:20;14.90;;;4.67;;
5277;SDS011;2662;51.194;6.614;2024-02-28T00:37:49;8.13;;;3.70;;
5277;SDS011;2662;51.194;6.614;2024-02-28T00:40:17;8.53;;;3.83;;
5277;SDS011;2662;51.194;6.614;2024-02-28T00:42:44;10.23;;;5.27;;
5277;SDS011;2662;51.194;6.614;2024-02-28T00:45:11;5.00;;;3.20;;
5277;SDS011;2662;51.194;6.614;2024-02-28T00:47:38;4.60;;;3.30;;
5277;SDS011;2662;51.194;6.614;2024-02-28T00:50:08;8.27;;;4.00;;
5277;SDS011;2662;51.194;6.614;2024-02-28T00:52:37;2.23;;;2.03;;
5277;SDS011;2662;51.194;6.614;2024-02-28T00:55:06;7.73;;;4.10;;
5277;SDS011;2662;51.194;6.614;2024-02-28T00:57:36;9.40;;;4.90;;
5277;SDS011;2662;51.194;6.614;2024-02-28T01:00:03;5.93;;;3.80;;
5277;SDS011;2662;51.194;6.614;2024-02-28T01:02:31;10.50;;;3.53;;
5277;SDS011;2662;51.194;6.614;2024-02-28T01:04:58;10.30;;;4.00;;
5277;SDS011;2662;51.194;6.614;2024-02-28T01:07:26;3.83;;;2.53;;
5277;SDS011;2662;51.194;6.614;2024-02-28T01:09:54;5.83;;;3.03;;
5277;SDS011;2662;51.194;6.614;2024-02-28T01:12:22;7.70;;;3.73;;
5277;SDS011;2662;51.194;6.614;2024-02-28T01:14:51;4.80;;;2.30;;
5277;SDS011;2662;51.194;6.614;2024-02-28T01:17:18;4.47;;;4.07;;
5277;SDS011;2662;51.194;6.614;2024-02-28T01:19:45;3.67;;;2.60;;
5277;SDS011;2662;51.194;6.614;2024-02-28T01:22:12;12.07;;;5.57;;
5277;SDS011;2662;51.194;6.614;2024-02-28T01:24:39;7.00;;;4.00;;
5277;SDS011;2662;51.194;6.614;2024-02-28T01:27:06;12.77;;;4.60;;
5277;SDS011;2662;51.194;6.614;2024-02-28T01:29:34;6.43;;;3.40;;
5277;SDS011;2662;51.194;6.614;2024-02-28T01:32:01;6.93;;;4.70;;
5277;SDS011;2662;51.194;6.614;2024-02-28T01:34:29;7.20;;;3.23;;
5277;SDS011;2662;51.194;6.614;2024-02-28T01:36:57;4.80;;;3.90;;
5277;SDS011;2662;51.194;6.614;2024-02-28T01:39:26;8.10;;;4.50;;
5277;SDS011;2662;51.194;6.614;2024-02-28T01:41:53;5.67;;;3.17;;
5277;SDS011;2662;51.194;6.614;2024-02-28T01:44:21;2.80;;;2.60;;
5277;SDS011;2662;51.194;6.614;2024-02-28T01:46:50;5.47;;;3.33;;
5277;SDS011;2662;51.194;6.614;2024-02-28T01:49:21;8.37;;;3.90;;
5277;SDS011;2662;51.194;6.614;2024-02-28T01:51:57;9.83;;;3.30;;
5277;SDS011;2662;51.194;6.614;2024-02-28T01:54:25;5.03;;;3.50;;
5277;SDS011;2662;51.194;6.614;2024-02-28T01:56:55;6.30;;;2.80;;
5277;SDS011;2662;51.194;6.614;2024-02-28T01:59:22;3.50;;;2.93;;
5277;SDS011;2662;51.194;6.614;2024-02-28T02:01:54;4.37;;;3.80;;
5277;SDS011;2662;51.194;6.614;2024-02-28T02:04:25;8.43;;;4.17;;
5277;SDS011;2662;51.194;6.614;2024-02-28T02:06:52;13.60;;;4.37;;
5277;SDS011;2662;51.194;6.614;2024-02-28T02:09:20;4.83;;;2.30;;
5277;SDS011;2662;51.194;6.614;2024-02-28T02:11:48;6.20;;;4.20;;
5277;SDS011;2662;51.194;6.614;2024-02-28T02:14:15;9.80;;;3.73;;
5277;SDS011;2662;51.194;6.614;2024-02-28T02:16:42;9.80;;;5.33;;
5277;SDS011;2662;51.194;6.614;2024-02-28T02:19:13;5.60;;;3.13;;
5277;SDS011;2662;51.194;6.614;2024-02-28T02:21:48;9.03;;;4.40;;
5277;SDS011;2662;51.194;6.614;2024-02-28T02:24:20;3.97;;;3.50;;
5277;SDS011;2662;51.194;6.614;2024-02-28T02:26:47;9.73;;;4.97;;
5277;SDS011;2662;51.194;6.614;2024-02-28T02:29:16;8.83;;;3.90;;
5277;SDS011;2662;51.194;6.614;2024-02-28T02:31:43;13.00;;;4.93;;
5277;SDS011;2662;51.194;6.614;2024-02-28T02:34:11;8.57;;;4.37;;
5277;SDS011;2662;51.194;6.614;2024-02-28T02:36:38;9.77;;;5.00;;
5277;SDS011;2662;51.194;6.614;2024-02-28T02:39:05;21.87;;;6.53;;
5277;SDS011;2662;51.194;6.614;2024-02-28T02:41:34;13.07;;;5.80;;
5277;SDS011;2662;51.194;6.614;2024-02-28T02:44:01;19.40;;;7.70;;
5277;SDS011;2662;51.194;6.614;2024-02-28T02:46:29;23.37;;;7.70;;
5277;SDS011;2662;51.194;6.614;2024-02-28T02:48:55;9.97;;;6.87;;
5277;SDS011;2662;51.194;6.614;2024-02-28T02:51:22;16.43;;;7.33;;
5277;SDS011;2662;51.194;6.614;2024-02-28T02:53:52;23.13;;;8.70;;
5277;SDS011;2662;51.194;6.614;2024-02-28T02:56:19;22.83;;;9.80;;
5277;SDS011;2662;51.194;6.614;2024-02-28T02:58:48;42.30;;;9.70;;
5277;SDS011;2662;51.194;6.614;2024-02-28T03:01:15;29.07;;;9.00;;
5277;SDS011;2662;51.194;6.614;2024-02-28T03:03:42;13.00;;;7.17;;
5277;SDS011;2662;51.194;6.614;2024-02-28T03:06:09;24.20;;;8.47;;
5277;SDS011;2662;51.194;6.614;2024-02-28T03:08:37;17.80;;;8.43;;
5277;SDS011;2662;51.194;6.614;2024-02-28T03:11:04;22.27;;;8.80;;
5277;SDS011;2662;51.194;6.614;2024-02-28T03:13:33;24.07;;;8.93;;
5277;SDS011;2662;51.194;6.614;2024-02-28T03:16:04;19.60;;;7.73;;
5277;SDS011;2662;51.194;6.614;2024-02-28T03:18:32;22.30;;;8.73;;
5277;SDS011;2662;51.194;6.614;2024-02-28T03:20:58;25.37;;;9.77;;
5277;SDS011;2662;51.194;6.614;2024-02-28T03:23:27;28.40;;;10.10;;
5277;SDS011;2662;51.194;6.614;2024-02-28T03:25:54;21.90;;;8.10;;
5277;SDS011;2662;51.194;6.614;2024-02-28T03:28:21;16.03;;;8.30;;
5277;SDS011;2662;51.194;6.614;2024-02-28T03:30:48;22.97;;;7.97;;
5277;SDS011;2662;51.194;6.614;2024-02-28T03:33:16;20.10;;;8.77;;
5277;SDS011;2662;51.194;6.614;2024-02-28T03:35:43;19.83;;;8.93;;
5277;SDS011;2662;51.194;6.614;2024-02-28T03:38:10;18.70;;;6.90;;
5277;SDS011;2662;51.194;6.614;2024-02-28T03:40:37;28.33;;;8.00;;
5277;SDS011;2662;51.194;6.614;2024-02-28T03:43:04;30.83;;;9.60;;
5277;SDS011;2662;51.194;6.614;2024-02-28T03:45:31;55.43;;;9.53;;
5277;SDS011;2662;51.194;6.614;2024-02-28T03:48:04;35.63;;;9.40;;
5277;SDS011;2662;51.194;6.614;2024-02-28T03:50:33;17.20;;;6.80;;
5277;SDS011;2662;51.194;6.614;2024-02-28T03:52:59;23.70;;;8.30;;
5277;SDS011;2662;51.194;6.614;2024-02-28T03:55:27;20.53;;;8.63;;
5277;SDS011;2662;51.194;6.614;2024-02-28T03:57:54;21.23;;;9.10;;
5277;SDS011;2662;51.194;6.614;2024-02-28T04:00:21;23.80;;;10.23;;
5277;SDS011;2662;51.194;6.614;2024-02-28T04:02:48;27.40;;;10.10;;
5277;SDS011;2662;51.194;6.614;2024-02-28T04:05:14;25.23;;;10.00;;
5277;SDS011;2662;51.194;6.614;2024-02-28T04:07:43;29.97;;;11.53;;
5277;SDS011;2662;51.194;6.614;2024-02-28T04:10:11;30.23;;;9.40;;
5277;SDS011;2662;51.194;6.614;2024-02-28T04:12:38;25.13;;;9.40;;
5277;SDS011;2662;51.194;6.614;2024-02-28T04:15:05;22.40;;;8.13;;
5277;SDS011;2662;51.194;6.614;2024-02-28T04:17:32;20.67;;;8.50;;
5277;SDS011;2662;51.194;6.614;2024-02-28T04:19:59;15.67;;;6.67;;
5277;SDS011;2662;51.194;6.614;2024-02-28T04:22:29;19.80;;;9.07;;
5277;SDS011;2662;51.194;6.614;2024-02-28T04:24:59;29.77;;;6.70;;
5277;SDS011;2662;51.194;6.614;2024-02-28T04:27:27;14.60;;;7.00;;
5277;SDS011;2662;51.194;6.614;2024-02-28T04:29:55;25.20;;;7.07;;
5277;SDS011;2662;51.194;6.614;2024-02-28T04:32:22;22.00;;;9.20;;
5277;SDS011;2662;51.194;6.614;2024-02-28T04:34:50;25.97;;;7.70;;
5277;SDS011;2662;51.194;6.614;2024-02-28T04:37:18;29.07;;;9.27;;
5277;SDS011;2662;51.194;6.614;2024-02-28T04:39:45;27.10;;;7.30;;
5277;SDS011;2662;51.194;6.614;2024-02-28T04:42:15;20.73;;;7.80;;
5277;SDS011;2662;51.194;6.614;2024-02-28T04:44:42;20.57;;;7.17;;
5277;SDS011;2662;51.194;6.614;2024-02-28T04:47:09;13.73;;;5.27;;
5277;SDS011;2662;51.194;6.614;2024-02-28T04:49:37;16.93;;;6.60;;
5277;SDS011;2662;51.194;6.614;2024-02-28T04:52:04;12.37;;;4.97;;
5277;SDS011;2662;51.194;6.614;2024-02-28T04:54:32;18.50;;;6.20;;
5277;SDS011;2662;51.194;6.614;2024-02-28T04:56:59;15.57;;;5.50;;
5277;SDS011;2662;51.194;6.614;2024-02-28T04:59:29;18.20;;;6.77;;
5277;SDS011;2662;51.194;6.614;2024-02-28T05:01:57;14.67;;;7.20;;
5277;SDS011;2662;51.194;6.614;2024-02-28T05:04:23;18.43;;;8.80;;
5277;SDS011;2662;51.194;6.614;2024-02-28T05:06:50;25.93;;;7.77;;
5277;SDS011;2662;51.194;6.614;2024-02-28T05:09:17;16.60;;;6.93;;
5277;SDS011;2662;51.194;6.614;2024-02-28T05:11:44;13.80;;;7.17;;
5277;SDS011;2662;51.194;6.614;2024-02-28T05:14:13;21.90;;;5.93;;
5277;SDS011;2662;51.194;6.614;2024-02-28T05:16:44;15.13;;;6.53;;
5277;SDS011;2662;51.194;6.614;2024-02-28T05:19:12;28.53;;;8.70;;
5277;SDS011;2662;51.194;6.614;2024-02-28T05:21:43;23.93;;;7.50;;
5277;SDS011;2662;51.194;6.614;2024-02-28T05:24:11;19.70;;;6.93;;
5277;SDS011;2662;51.194;6.614;2024-02-28T05:26:38;22.73;;;8.83;;
5277;SDS011;2662;51.194;6.614;2024-02-28T05:29:05;23.90;;;7.67;;
5277;SDS011;2662;51.194;6.614;2024-02-28T05:31:33;21.53;;;8.37;;
5277;SDS011;2662;51.194;6.614;2024-02-28T05:34:03;22.63;;;8.83;;
5277;SDS011;2662;51.194;6.614;2024-02-28T05:36:30;37.50;;;9.20;;
5277;SDS011;2662;51.194;6.614;2024-02-28T05:38:59;85.10;;;8.97;;
5277;SDS011;2662;51.194;6.614;2024-02-28T05:41:27;16.73;;;6.93;;
5277;SDS011;2662;51.194;6.614;2024-02-28T05:43:55;13.83;;;7.50;;
5277;SDS011;2662;51.194;6.614;2024-02-28T05:46:22;21.70;;;8.20;;
5277;SDS011;2662;51.194;6.614;2024-02-28T05:48:49;16.73;;;7.33;;
5277;SDS011;2662;51.194;6.614;2024-02-28T05:51:17;16.90;;;7.70;;
5277;SDS011;2662;51.194;6.614;2024-02-28T05:53:45;28.70;;;8.77;;
5277;SDS011;2662;51.194;6.614;2024-02-28T05:56:12;26.80;;;9.43;;
5277;SDS011;2662;51.194;6.614;2024-02-28T05:58:40;22.03;;;9.37;;
5277;SDS011;2662;51.194;6.614;2024-02-28T06:01:08;32.40;;;6.83;;
5277;SDS011;2662;51.194;6.614;2024-02-28T06:03:34;24.53;;;10.27;;
5277;SDS011;2662;51.194;6.614;2024-02-28T06:06:02;25.30;;;8.93;;
5277;SDS011;2662;51.194;6.614;2024-02-28T06:08:32;18.10;;;7.40;;
5277;SDS011;2662;51.194;6.614;2024-02-28T06:10:59;31.40;;;8.43;;
5277;SDS011;2662;51.194;6.614;2024-02-28T06:13:26;29.20;;;10.20;;
5277;SDS011;2662;51.194;6.614;2024-02-28T06:15:54;30.20;;;11.20;;
5277;SDS011;2662;51.194;6.614;2024-02-28T06:18:21;31.07;;;10.17;;
5277;SDS011;2662;51.194;6.614;2024-02-28T06:20:51;27.03;;;9.77;;
5277;SDS011;2662;51.194;6.614;2024-02-28T06:23:19;26.73;;;7.87;;
5277;SDS011;2662;51.194;6.614;2024-02-28T06:25:47;26.07;;;8.67;;
5277;SDS011;2662;51.194;6.614;2024-02-28T06:28:15;17.27;;;8.23;;
5277;SDS011;2662;51.194;6.614;2024-02-28T06:30:42;24.33;;;8.03;;
5277;SDS011;2662;51.194;6.614;2024-02-28T06:33:11;15.03;;;7.77;;
5277;SDS011;2662;51.194;6.614;2024-02-28T06:35:38;31.57;;;10.27;;
5277;SDS011;2662;51.194;6.614;2024-02-28T06:38:04;23.90;;;9.60;;
5277;SDS011;2662;51.194;6.614;2024-02-28T06:40:32;21.67;;;7.73;;
5277;SDS011;2662;51.194;6.614;2024-02-28T06:43:02;24.83;;;9.40;;
5277;SDS011;2662;51.194;6.614;2024-02-28T06:45:30;25.87;;;9.83;;
5277;SDS011;2662;51.194;6.614;2024-02-28T06:47:57;29.90;;;9.40;;
5277;SDS011;2662;51.194;6.614;2024-02-28T06:50:24;21.07;;;7.97;;
5277;SDS011;2662;51.194;6.614;2024-02-28T06:52:51;21.50;;;8.00;;
5277;SDS011;2662;51.194;6.614;2024-02-28T06:55:18;18.10;;;7.87;;
5277;SDS011;2662;51.194;6.614;2024-02-28T06:57:46;24.20;;;9.30;;
5277;SDS011;2662;51.194;6.614;2024-02-28T07:00:16;16.87;;;7.53;;
5277;SDS011;2662;51.194;6.614;2024-02-28T07:02:44;16.10;;;7.80;;
5277;SDS011;2662;51.194;6.614;2024-02-28T07:05:12;18.27;;;7.97;;
5277;SDS011;2662;51.194;6.614;2024-02-28T07:07:39;27.93;;;7.93;;
5277;SDS011;2662;51.194;6.614;2024-02-28T07:10:06;22.93;;;7.20;;
5277;SDS011;2662;51.194;6.614;2024-02-28T07:12:34;31.63;;;10.00;;
5277;SDS011;2662;51.194;6.614;2024-02-28T07:15:01;31.97;;;8.60;;
5277;SDS011;2662;51.194;6.614;2024-02-28T07:17:29;24.10;;;8.57;;
5277;SDS011;2662;51.194;6.614;2024-02-28T07:19:56;20.73;;;7.63;;
5277;SDS011;2662;51.194;6.614;2024-02-28T07:22:23;25.00;;;9.53;;
5277;SDS011;2662;51.194;6.614;2024-02-28T07:24:51;26.43;;;9.23;;
5277;SDS011;2662;51.194;6.614;2024-02-28T07:27:18;20.23;;;8.50;;
5277;SDS011;2662;51.194;6.614;2024-02-28T07:29:45;15.73;;;7.00;;
5277;SDS011;2662;51.194;6.614;2024-02-28T07:32:13;29.33;;;9.47;;
5277;SDS011;2662;51.194;6.614;2024-02-28T07:34:41;22.53;;;7.67;;
5277;SDS011;2662;51.194;6.614;2024-02-28T07:37:08;24.33;;;8.10;;
5277;SDS011;2662;51.194;6.614;2024-02-28T07:39:36;33.50;;;9.67;;
5277;SDS011;2662;51.194;6.614;2024-02-28T07:42:03;28.83;;;9.60;;
5277;SDS011;2662;51.194;6.614;2024-02-28T07:44:31;18.97;;;8.17;;
5277;SDS011;2662;51.194;6.614;2024-02-28T07:46:58;23.13;;;7.90;;
5277;SDS011;2662;51.194;6.614;2024-02-28T07:49:25;24.30;;;7.87;;
5277;SDS011;2662;51.194;6.614;2024-02-28T07:51:53;19.60;;;7.67;;
5277;SDS011;2662;51.194;6.614;2024-02-28T07:54:20;14.67;;;6.03;;
5277;SDS011;2662;51.194;6.614;2024-02-28T07:56:48;26.37;;;7.77;;
5277;SDS011;2662;51.194;6.614;2024-02-28T07:59:15;16.63;;;7.33;;
5277;SDS011;2662;51.194;6.614;2024-02-28T08:01:44;15.50;;;7.50;;
5277;SDS011;2662;51.194;6.614;2024-02-28T08:04:11;22.47;;;7.37;;
5277;SDS011;2662;51.194;6.614;2024-02-28T08:06:39;15.20;;;7.63;;
5277;SDS011;2662;51.194;6.614;2024-02-28T08:09:07;20.83;;;7.00;;
5277;SDS011;2662;51.194;6.614;2024-02-28T08:11:35;25.23;;;7.40;;
5277;SDS011;2662;51.194;6.614;2024-02-28T08:14:02;18.50;;;7.90;;
5277;SDS011;2662;51.194;6.614;2024-02-28T08:16:30;17.63;;;7.30;;
5277;SDS011;2662;51.194;6.614;2024-02-28T08:18:57;25.47;;;7.57;;
5277;SDS011;2662;51.194;6.614;2024-02-28T08:21:23;21.03;;;7.90;;
5277;SDS011;2662;51.194;6.614;2024-02-28T08:23:51;18.47;;;7.90;;
5277;SDS011;2662;51.194;6.614;2024-02-28T08:26:20;20.03;;;8.87;;
5277;SDS011;2662;51.194;6.614;2024-02-28T08:28:47;17.20;;;7.07;;
5277;SDS011;2662;51.194;6.614;2024-02-28T08:31:14;23.03;;;8.30;;
5277;SDS011;2662;51.194;6.614;2024-02-28T08:33:41;20.57;;;7.13;;
5277;SDS011;2662;51.194;6.614;2024-02-28T08:36:08;23.60;;;8.13;;
5277;SDS011;2662;51.194;6.614;2024-02-28T08:38:35;17.70;;;8.40;;
5277;SDS011;2662;51.194;6.614;2024-02-28T08:41:04;26.13;;;8.10;;
5277;SDS011;2662;51.194;6.614;2024-02-28T08:43:33;24.63;;;7.90;;
5277;SDS011;2662;51.194;6.614;2024-02-28T08:46:03;20.77;;;7.00;;
5277;SDS011;2662;51.194;6.614;2024-02-28T08:48:33;16.67;;;7.53;;
5277;SDS011;2662;51.194;6.614;2024-02-28T08:51:00;23.13;;;7.87;;
5277;SDS011;2662;51.194;6.614;2024-02-28T08:53:27;19.77;;;7.70;;
5277;SDS011;2662;51.194;6.614;2024-02-28T08:55:54;22.33;;;9.03;;
5277;SDS011;2662;51.194;6.614;2024-02-28T08:58:21;28.80;;;8.97;;
5277;SDS011;2662;51.194;6.614;2024-02-28T09:00:52;23.10;;;7.70;;
5277;SDS011;2662;51.194;6.614;2024-02-28T09:03:22;19.03;;;7.20;;
5277;SDS011;2662;51.194;6.614;2024-02-28T09:05:49;30.50;;;8.50;;
5277;SDS011;2662;51.194;6.614;2024-02-28T09:08:16;32.30;;;9.77;;
5277;SDS011;2662;51.194;6.614;2024-02-28T09:10:43;22.57;;;8.10;;
5277;SDS011;2662;51.194;6.614;2024-02-28T09:13:10;21.83;;;8.23;;
5277;SDS011;2662;51.194;6.614;2024-02-28T09:15:37;27.93;;;10.03;;
5277;SDS011;2662;51.194;6.614;2024-02-28T09:18:06;24.50;;;9.33;;
5277;SDS011;2662;51.194;6.614;2024-02-28T09:20:33;21.90;;;8.20;;
5277;SDS011;2662;51.194;6.614;2024-02-28T09:23:00;20.40;;;8.53;;
5277;SDS011;2662;51.194;6.614;2024-02-28T09:25:27;18.37;;;7.17;;
5277;SDS011;2662;51.194;6.614;2024-02-28T09:27:55;25.43;;;8.40;;
5277;SDS011;2662;51.194;6.614;2024-02-28T09:30:22;16.80;;;7.13;;
5277;SDS011;2662;51.194;6.614;2024-02-28T09:32:49;17.83;;;8.00;;
5277;SDS011;2662;51.194;6.614;2024-02-28T09:35:17;18.73;;;7.37;;
5277;SDS011;2662;51.194;6.614;2024-02-28T09:37:44;32.17;;;8.00;;
5277;SDS011;2662;51.194;6.614;2024-02-28T09:40:11;16.83;;;8.47;;
5277;SDS011;2662;51.194;6.614;2024-02-28T09:42:38;27.10;;;8.97;;
5277;SDS011;2662;51.194;6.614;2024-02-28T09:45:08;20.37;;;8.53;;
5277;SDS011;2662;51.194;6.614;2024-02-28T09:47:39;16.07;;;6.20;;
5277;SDS011;2662;51.194;6.614;2024-02-28T09:50:06;14.93;;;6.40;;
5277;SDS011;2662;51.194;6.614;2024-02-28T09:52:36;15.53;;;7.20;;
5277;SDS011;2662;51.194;6.614;2024-02-28T09:55:03;19.13;;;7.10;;
5277;SDS011;2662;51.194;6.614;2024-02-28T09:57:31;17.33;;;6.73;;
5277;SDS011;2662;51.194;6.614;2024-02-28T10:00:00;19.53;;;7.97;;
5277;SDS011;2662;51.194;6.614;2024-02-28T10:02:27;27.23;;;7.63;;
5277;SDS011;2662;51.194;6.614;2024-02-28T10:04:55;18.93;;;6.77;;
5277;SDS011;2662;51.194;6.614;2024-02-28T10:07:24;15.97;;;7.27;;
5277;SDS011;2662;51.194;6.614;2024-02-28T10:09:52;20.80;;;8.23;;
5277;SDS011;2662;51.194;6.614;2024-02-28T10:12:20;20.67;;;7.97;;
5277;SDS011;2662;51.194;6.614;2024-02-28T10:14:50;25.67;;;9.00;;
5277;SDS011;2662;51.194;6.614;2024-02-28T10:17:17;17.87;;;8.33;;
5277;SDS011;2662;51.194;6.614;2024-02-28T10:19:45;25.13;;;8.67;;
5277;SDS011;2662;51.194;6.614;2024-02-28T10:22:12;21.93;;;7.70;;
5277;SDS011;2662;51.194;6.614;2024-02-28T10:24:41;17.90;;;7.10;;
5277;SDS011;2662;51.194;6.614;2024-02-28T10:27:09;16.13;;;7.67;;
5277;SDS011;2662;51.194;6.614;2024-02-28T10:29:36;29.67;;;8.37;;
5277;SDS011;2662;51.194;6.614;2024-02-28T10:32:06;21.13;;;8.60;;
5277;SDS011;2662;51.194;6.614;2024-02-28T10:34:33;23.17;;;8.47;;
5277;SDS011;2662;51.194;6.614;2024-02-28T10:37:01;20.33;;;7.33;;
5277;SDS011;2662;51.194;6.614;2024-02-28T10:39:30;19.90;;;7.73;;
5277;SDS011;2662;51.194;6.614;2024-02-28T10:42:01;16.20;;;6.73;;
5277;SDS011;2662;51.194;6.614;2024-02-28T10:44:30;27.70;;;9.43;;
5277;SDS011;2662;51.194;6.614;2024-02-28T10:47:01;18.30;;;7.70;;
5277;SDS011;2662;51.194;6.614;2024-02-28T10:49:28;23.80;;;8.93;;
5277;SDS011;2662;51.194;6.614;2024-02-28T10:51:56;16.83;;;7.67;;
5277;SDS011;2662;51.194;6.614;2024-02-28T10:54:25;19.97;;;8.13;;
5277;SDS011;2662;51.194;6.614;2024-02-28T10:56:57;21.17;;;7.23;;
5277;SDS011;2662;51.194;6.614;2024-02-28T10:59:31;21.83;;;8.20;;
5277;SDS011;2662;51.194;6.614;2024-02-28T11:02:00;21.67;;;7.33;;
5277;SDS011;2662;51.194;6.614;2024-02-28T11:04:30;22.60;;;6.67;;
5277;SDS011;2662;51.194;6.614;2024-02-28T11:06:58;26.77;;;7.47;;
5277;SDS011;2662;51.194;6.614;2024-02-28T11:09:28;19.30;;;6.13;;
5277;SDS011;2662;51.194;6.614;2024-02-28T11:11:59;20.07;;;7.70;;
5277;SDS011;2662;51.194;6.614;2024-02-28T11:14:31;16.90;;;7.87;;
5277;SDS011;2662;51.194;6.614;2024-02-28T11:17:01;18.40;;;7.70;;
5277;SDS011;2662;51.194;6.614;2024-02-28T11:19:31;19.77;;;8.53;;
5277;SDS011;2662;51.194;6.614;2024-02-28T11:22:00;22.50;;;7.90;;
5277;SDS011;2662;51.194;6.614;2024-02-28T11:24:29;19.57;;;6.93;;
5277;SDS011;2662;51.194;6.614;2024-02-28T11:26:57;16.90;;;7.10;;
5277;SDS011;2662;51.194;6.614;2024-02-28T11:29:24;20.47;;;7.93;;
5277;SDS011;2662;51.194;6.614;2024-02-28T11:31:57;24.40;;;9.97;;
5277;SDS011;2662;51.194;6.614;2024-02-28T11:34:25;18.63;;;8.17;;
5277;SDS011;2662;51.194;6.614;2024-02-28T11:36:52;24.00;;;9.43;;
5277;SDS011;2662;51.194;6.614;2024-02-28T11:39:20;17.67;;;8.47;;
5277;SDS011;2662;51.194;6.614;2024-02-28T11:41:50;17.93;;;7.77;;
5277;SDS011;2662;51.194;6.614;2024-02-28T11:44:20;19.10;;;8.00;;
5277;SDS011;2662;51.194;6.614;2024-02-28T11:46:48;24.67;;;8.67;;
5277;SDS011;2662;51.194;6.614;2024-02-28T11:49:18;21.70;;;8.90;;
5277;SDS011;2662;51.194;6.614;2024-02-28T11:51:48;17.50;;;7.90;;
5277;SDS011;2662;51.194;6.614;2024-02-28T11:54:15;19.90;;;8.20;;
5277;SDS011;2662;51.194;6.614;2024-02-28T11:56:42;21.13;;;9.30;;
5277;SDS011;2662;51.194;6.614;2024-02-28T11:59:10;19.43;;;8.77;;
5277;SDS011;2662;51.194;6.614;2024-02-28T12:01:43;19.50;;;7.93;;
5277;SDS011;2662;51.194;6.614;2024-02-28T12:04:11;16.77;;;7.50;;
5277;SDS011;2662;51.194;6.614;2024-02-28T12:06:40;22.87;;;8.47;;
5277;SDS011;2662;51.194;6.614;2024-02-28T12:09:09;16.63;;;8.13;;
5277;SDS011;2662;51.194;6.614;2024-02-28T12:11:39;19.77;;;8.60;;
5277;SDS011;2662;51.194;6.614;2024-02-28T12:14:07;19.90;;;9.20;;
5277;SDS011;2662;51.194;6.614;2024-02-28T12:16:38;18.20;;;7.50;;
5277;SDS011;2662;51.194;6.614;2024-02-28T12:19:07;16.40;;;7.30;;
5277;SDS011;2662;51.194;6.614;2024-02-28T12:21:35;24.03;;;7.93;;
5277;SDS011;2662;51.194;6.614;2024-02-28T12:24:07;18.10;;;7.40;;
5277;SDS011;2662;51.194;6.614;2024-02-28T12:26:35;18.77;;;7.17;;
5277;SDS011;2662;51.194;6.614;2024-02-28T12:29:02;15.87;;;6.50;;
5277;SDS011;2662;51.194;6.614;2024-02-28T12:31:32;18.80;;;8.10;;
5277;SDS011;2662;51.194;6.614;2024-02-28T12:33:59;15.97;;;6.50;;
5277;SDS011;2662;51.194;6.614;2024-02-28T12:36:29;17.90;;;6.90;;
5277;SDS011;2662;51.194;6.614;2024-02-28T12:38:56;20.43;;;8.93;;
5277;SDS011;2662;51.194;6.614;2024-02-28T12:41:26;19.40;;;7.70;;
5277;SDS011;2662;51.194;6.614;2024-02-28T12:43:55;16.80;;;7.13;;
5277;SDS011;2662;51.194;6.614;2024-02-28T12:46:22;14.83;;;6.70;;
5277;SDS011;2662;51.194;6.614;2024-02-28T12:48:49;17.00;;;7.03;;
5277;SDS011;2662;51.194;6.614;2024-02-28T12:51:20;17.13;;;6.67;;
5277;SDS011;2662;51.194;6.614;2024-02-28T12:54:02;20.97;;;7.20;;
5277;SDS011;2662;51.194;6.614;2024-02-28T12:56:33;14.33;;;7.00;;
5277;SDS011;2662;51.194;6.614;2024-02-28T12:59:00;18.13;;;7.20;;
5277;SDS011;2662;51.194;6.614;2024-02-28T13:01:27;13.70;;;5.20;;
5277;SDS011;2662;51.194;6.614;2024-02-28T13:03:55;15.70;;;6.80;;
5277;SDS011;2662;51.194;6.614;2024-02-28T13:06:22;12.97;;;5.27;;
5277;SDS011;2662;51.194;6.614;2024-02-28T13:08:49;11.73;;;4.87;;
5277;SDS011;2662;51.194;6.614;2024-02-28T13:11:20;22.20;;;7.00;;
5277;SDS011;2662;51.194;6.614;2024-02-28T13:13:52;13.83;;;5.50;;
5277;SDS011;2662;51.194;6.614;2024-02-28T13:16:20;20.10;;;6.20;;
5277;SDS011;2662;51.194;6.614;2024-02-28T13:18:48;13.87;;;5.93;;
5277;SDS011;2662;51.194;6.614;2024-02-28T13:21:16;11.87;;;5.50;;
5277;SDS011;2662;51.194;6.614;2024-02-28T13:23:43;9.83;;;4.90;;
5277;SDS011;2662;51.194;6.614;2024-02-28T13:26:10;13.33;;;5.47;;
5277;SDS011;2662;51.194;6.614;2024-02-28T13:28:45;11.50;;;3.70;;
5277;SDS011;2662;51.194;6.614;2024-02-28T13:31:15;12.43;;;4.10;;
5277;SDS011;2662;51.194;6.614;2024-02-28T13:33:42;8.57;;;3.70;;
5277;SDS011;2662;51.194;6.614;2024-02-28T13:36:10;8.87;;;3.50;;
5277;SDS011;2662;51.194;6.614;2024-02-28T13:38:41;9.40;;;3.30;;
5277;SDS011;2662;51.194;6.614;2024-02-28T13:41:09;8.83;;;3.57;;
5277;SDS011;2662;51.194;6.614;2024-02-28T13:43:36;7.00;;;3.60;;
5277;SDS011;2662;51.194;6.614;2024-02-28T13:46:03;4.70;;;3.03;;
5277;SDS011;2662;51.194;6.614;2024-02-28T13:48:33;8.33;;;3.37;;
5277;SDS011;2662;51.194;6.614;2024-02-28T13:51:01;12.23;;;4.50;;
5277;SDS011;2662;51.194;6.614;2024-02-28T13:53:28;8.07;;;3.70;;
5277;SDS011;2662;51.194;6.614;2024-02-28T13:55:55;9.83;;;4.73;;
5277;SDS011;2662;51.194;6.614;2024-02-28T13:58:23;6.90;;;3.50;;
5277;SDS011;2662;51.194;6.614;2024-02-28T14:00:50;7.50;;;3.50;;
5277;SDS011;2662;51.194;6.614;2024-02-28T14:03:17;5.27;;;3.23;;
5277;SDS011;2662;51.194;6.614;2024-02-28T14:05:45;6.90;;;3.30;;
5277;SDS011;2662;51.194;6.614;2024-02-28T14:08:12;8.60;;;3.77;;
5277;SDS011;2662;51.194;6.614;2024-02-28T14:10:39;6.07;;;2.80;;
5277;SDS011;2662;51.194;6.614;2024-02-28T14:13:07;7.17;;;3.50;;
5277;SDS011;2662;51.194;6.614;2024-02-28T14:15:35;5.93;;;2.97;;
5277;SDS011;2662;51.194;6.614;2024-02-28T14:18:04;7.47;;;3.33;;
5277;SDS011;2662;51.194;6.614;2024-02-28T14:20:32;6.67;;;2.47;;
5277;SDS011;2662;51.194;6.614;2024-02-28T14:23:02;4.50;;;2.60;;
5277;SDS011;2662;51.194;6.614;2024-02-28T14:25:30;21.37;;;3.37;;
5277;SDS011;2662;51.194;6.614;2024-02-28T14:28:02;7.77;;;3.40;;
5277;SDS011;2662;51.194;6.614;2024-02-28T14:30:29;5.13;;;2.80;;
5277;SDS011;2662;51.194;6.614;2024-02-28T14:33:00;6.10;;;2.60;;
5277;SDS011;2662;51.194;6.614;2024-02-28T14:35:28;7.13;;;2.70;;
5277;SDS011;2662;51.194;6.614;2024-02-28T14:37:55;7.30;;;3.00;;
5277;SDS011;2662;51.194;6.614;2024-02-28T14:40:24;7.00;;;3.40;;
5277;SDS011;2662;51.194;6.614;2024-02-28T14:42:51;5.27;;;3.30;;
5277;SDS011;2662;51.194;6.614;2024-02-28T14:45:18;4.87;;;2.93;;
5277;SDS011;2662;51.194;6.614;2024-02-28T14:47:46;4.90;;;2.77;;
5277;SDS011;2662;51.194;6.614;2024-02-28T14:50:13;9.63;;;3.40;;
5277;SDS011;2662;51.194;6.614;2024-02-28T14:52:41;5.27;;;3.20;;
5277;SDS011;2662;51.194;6.614;2024-02-28T14:55:08;7.47;;;3.20;;
5277;SDS011;2662;51.194;6.614;2024-02-28T14:57:38;5.77;;;3.47;;
5277;SDS011;2662;51.194;6.614;2024-02-28T15:00:08;7.37;;;3.50;;
5277;SDS011;2662;51.194;6.614;2024-02-28T15:02:39;8.00;;;3.73;;
5277;SDS011;2662;51.194;6.614;2024-02-28T15:05:06;7.40;;;3.60;;
5277;SDS011;2662;51.194;6.614;2024-02-28T15:07:34;8.60;;;3.77;;
5277;SDS011;2662;51.194;6.614;2024-02-28T15:10:05;8.27;;;3.00;;